SBOSBO BJV / LTFE
Speedbird OnlineSpeedbird Online BJV / LTFE

Milas Bodrum International Airport
13:58 26°C

Location Bodrum, Turkey
Latitude: 37.25059890749999
Longitude: 27.6643009186
Local Time 13:58 on 12 Apr 2024
UTC +3 hours (Europe/Istanbul)
Currency £1 equals TRY 40.52
METAR LTFE 121020Z 29009KT 9999 FEW035 26/13 Q1016 NOSIG RMK RWY10 28012KT
TAF TAF LTFE 120440Z 1206/1306 VRB02KT CAVOK BECMG 1208/1210 26012KT FEW035 SCT100 BECMG 1215/1218 VRB02KT CAVOK
Weather As Of 12 Apr 2024 13:58
Description Few clouds
Wind 17 km/h from West (290°)
Cloud Cover 20%
Precipitation Rain: none, Snow: none
Sunrise 06:38
Sunset 19:41
NOTAM 6 active NOTAM
Lounges TAV Comfort Lounge, International Terminal
Web Wikipedia
Codes IATA: BJV
ICAO: LTFE
Altitude 6 Meter / 21 Feet
Distance 2,676 KM / 1,663 Miles
from London.
Runways
RunwayLength (m)Surface
10L3000Concrete
10R2940Concrete
28L2940Concrete
28R3000Concrete
Radio
TypeDescriptionFrequency
APPMENDERES APP119.5
APPMENDERES APP119.775
ATISATIS128.5
GNDGND121.95
TWRTWR120.5
Live ATC



Support Speedbird Online

© 2017-2024 Speedbird Online